sensor_id;sensor_type;location;lat;lon;timestamp;P1;durP1;ratioP1;P2;durP2;ratioP2
22965;SDS011;11649;48.090;9.754;2023-08-06T00:00:55;4.68;;;2.78;;
22965;SDS011;11649;48.090;9.754;2023-08-06T00:03:22;3.53;;;3.22;;
22965;SDS011;11649;48.090;9.754;2023-08-06T00:05:49;5.05;;;3.17;;
22965;SDS011;11649;48.090;9.754;2023-08-06T00:08:15;3.70;;;3.28;;
22965;SDS011;11649;48.090;9.754;2023-08-06T00:10:43;3.70;;;3.10;;
22965;SDS011;11649;48.090;9.754;2023-08-06T00:13:09;3.67;;;3.33;;
22965;SDS011;11649;48.090;9.754;2023-08-06T00:15:36;4.65;;;3.55;;
22965;SDS011;11649;48.090;9.754;2023-08-06T00:18:03;4.03;;;3.40;;
22965;SDS011;11649;48.090;9.754;2023-08-06T00:20:30;6.40;;;3.80;;
22965;SDS011;11649;48.090;9.754;2023-08-06T00:22:57;4.63;;;3.90;;
22965;SDS011;11649;48.090;9.754;2023-08-06T00:25:23;5.88;;;3.80;;
22965;SDS011;11649;48.090;9.754;2023-08-06T00:27:50;5.47;;;4.65;;
22965;SDS011;11649;48.090;9.754;2023-08-06T00:30:17;5.55;;;4.53;;
22965;SDS011;11649;48.090;9.754;2023-08-06T00:32:44;6.25;;;5.07;;
22965;SDS011;11649;48.090;9.754;2023-08-06T00:35:11;5.65;;;4.70;;
22965;SDS011;11649;48.090;9.754;2023-08-06T00:37:39;5.85;;;4.85;;
22965;SDS011;11649;48.090;9.754;2023-08-06T00:40:06;4.75;;;4.32;;
22965;SDS011;11649;48.090;9.754;2023-08-06T00:42:34;7.35;;;4.85;;
22965;SDS011;11649;48.090;9.754;2023-08-06T00:45:01;5.57;;;4.97;;
22965;SDS011;11649;48.090;9.754;2023-08-06T00:47:29;5.20;;;4.70;;
22965;SDS011;11649;48.090;9.754;2023-08-06T00:49:56;6.22;;;4.70;;
22965;SDS011;11649;48.090;9.754;2023-08-06T00:52:23;6.28;;;4.90;;
22965;SDS011;11649;48.090;9.754;2023-08-06T00:54:50;6.47;;;5.32;;
22965;SDS011;11649;48.090;9.754;2023-08-06T00:57:17;6.15;;;4.85;;
22965;SDS011;11649;48.090;9.754;2023-08-06T00:59:44;6.75;;;5.78;;
22965;SDS011;11649;48.090;9.754;2023-08-06T01:02:12;7.18;;;5.22;;
22965;SDS011;11649;48.090;9.754;2023-08-06T01:04:39;8.75;;;5.10;;
22965;SDS011;11649;48.090;9.754;2023-08-06T01:07:09;6.18;;;5.43;;
22965;SDS011;11649;48.090;9.754;2023-08-06T01:09:55;7.85;;;5.30;;
22965;SDS011;11649;48.090;9.754;2023-08-06T01:12:46;6.47;;;5.20;;
22965;SDS011;11649;48.090;9.754;2023-08-06T01:15:33;6.45;;;5.35;;
22965;SDS011;11649;48.090;9.754;2023-08-06T01:18:14;5.35;;;4.85;;
22965;SDS011;11649;48.090;9.754;2023-08-06T01:20:41;5.47;;;4.97;;
22965;SDS011;11649;48.090;9.754;2023-08-06T01:23:08;6.68;;;4.90;;
22965;SDS011;11649;48.090;9.754;2023-08-06T01:25:58;8.43;;;5.38;;
22965;SDS011;11649;48.090;9.754;2023-08-06T01:28:40;6.00;;;5.30;;
22965;SDS011;11649;48.090;9.754;2023-08-06T01:31:30;7.57;;;5.30;;
22965;SDS011;11649;48.090;9.754;2023-08-06T01:33:58;7.43;;;5.25;;
22965;SDS011;11649;48.090;9.754;2023-08-06T01:36:27;6.18;;;5.18;;
22965;SDS011;11649;48.090;9.754;2023-08-06T01:38:55;6.95;;;5.60;;
22965;SDS011;11649;48.090;9.754;2023-08-06T01:41:21;6.78;;;5.40;;
22965;SDS011;11649;48.090;9.754;2023-08-06T01:43:48;7.05;;;4.88;;
22965;SDS011;11649;48.090;9.754;2023-08-06T01:46:15;8.30;;;5.20;;
22965;SDS011;11649;48.090;9.754;2023-08-06T01:48:42;4.97;;;4.47;;
22965;SDS011;11649;48.090;9.754;2023-08-06T01:51:09;7.38;;;5.20;;
22965;SDS011;11649;48.090;9.754;2023-08-06T01:53:35;8.60;;;5.53;;
22965;SDS011;11649;48.090;9.754;2023-08-06T01:56:02;7.45;;;5.30;;
22965;SDS011;11649;48.090;9.754;2023-08-06T01:58:29;8.75;;;5.32;;
22965;SDS011;11649;48.090;9.754;2023-08-06T02:00:56;6.43;;;5.65;;
22965;SDS011;11649;48.090;9.754;2023-08-06T02:03:23;5.65;;;4.97;;
22965;SDS011;11649;48.090;9.754;2023-08-06T02:05:50;6.80;;;5.10;;
22965;SDS011;11649;48.090;9.754;2023-08-06T02:08:20;5.57;;;4.80;;
22965;SDS011;11649;48.090;9.754;2023-08-06T02:10:47;7.05;;;4.78;;
22965;SDS011;11649;48.090;9.754;2023-08-06T02:13:14;6.28;;;4.93;;
22965;SDS011;11649;48.090;9.754;2023-08-06T02:15:44;5.35;;;4.80;;
22965;SDS011;11649;48.090;9.754;2023-08-06T02:18:14;7.18;;;4.68;;
22965;SDS011;11649;48.090;9.754;2023-08-06T02:20:41;5.80;;;4.38;;
22965;SDS011;11649;48.090;9.754;2023-08-06T02:23:08;8.40;;;4.50;;
22965;SDS011;11649;48.090;9.754;2023-08-06T02:25:35;5.45;;;4.10;;
22965;SDS011;11649;48.090;9.754;2023-08-06T02:28:02;5.15;;;3.95;;
22965;SDS011;11649;48.090;9.754;2023-08-06T02:30:29;4.72;;;3.97;;
22965;SDS011;11649;48.090;9.754;2023-08-06T02:32:56;6.03;;;3.92;;
22965;SDS011;11649;48.090;9.754;2023-08-06T02:35:23;4.72;;;3.40;;
22965;SDS011;11649;48.090;9.754;2023-08-06T02:37:50;3.47;;;2.90;;
22965;SDS011;11649;48.090;9.754;2023-08-06T02:40:18;7.25;;;2.80;;
22965;SDS011;11649;48.090;9.754;2023-08-06T02:42:44;3.17;;;2.67;;
22965;SDS011;11649;48.090;9.754;2023-08-06T02:45:11;2.63;;;2.42;;
22965;SDS011;11649;48.090;9.754;2023-08-06T02:47:38;3.00;;;2.50;;
22965;SDS011;11649;48.090;9.754;2023-08-06T02:50:05;4.70;;;2.67;;
22965;SDS011;11649;48.090;9.754;2023-08-06T02:52:32;4.03;;;2.47;;
22965;SDS011;11649;48.090;9.754;2023-08-06T02:54:59;4.15;;;2.63;;
22965;SDS011;11649;48.090;9.754;2023-08-06T02:57:26;3.47;;;2.58;;
22965;SDS011;11649;48.090;9.754;2023-08-06T02:59:53;5.95;;;2.67;;
22965;SDS011;11649;48.090;9.754;2023-08-06T03:02:20;5.47;;;3.25;;
22965;SDS011;11649;48.090;9.754;2023-08-06T03:04:46;4.57;;;3.50;;
22965;SDS011;11649;48.090;9.754;2023-08-06T03:07:13;4.72;;;3.30;;
22965;SDS011;11649;48.090;9.754;2023-08-06T03:09:40;3.90;;;3.30;;
22965;SDS011;11649;48.090;9.754;2023-08-06T03:12:07;3.80;;;3.40;;
22965;SDS011;11649;48.090;9.754;2023-08-06T03:14:34;7.00;;;4.03;;
22965;SDS011;11649;48.090;9.754;2023-08-06T03:17:01;5.47;;;3.72;;
22965;SDS011;11649;48.090;9.754;2023-08-06T03:19:27;6.45;;;4.38;;
22965;SDS011;11649;48.090;9.754;2023-08-06T03:21:54;7.93;;;4.00;;
22965;SDS011;11649;48.090;9.754;2023-08-06T03:24:21;5.00;;;3.97;;
22965;SDS011;11649;48.090;9.754;2023-08-06T03:26:48;7.10;;;4.22;;
22965;SDS011;11649;48.090;9.754;2023-08-06T03:29:14;6.18;;;4.18;;
22965;SDS011;11649;48.090;9.754;2023-08-06T03:31:41;5.43;;;3.95;;
22965;SDS011;11649;48.090;9.754;2023-08-06T03:34:08;4.35;;;3.95;;
22965;SDS011;11649;48.090;9.754;2023-08-06T03:36:35;5.45;;;4.30;;
22965;SDS011;11649;48.090;9.754;2023-08-06T03:39:02;5.05;;;4.55;;
22965;SDS011;11649;48.090;9.754;2023-08-06T03:41:30;5.95;;;4.53;;
22965;SDS011;11649;48.090;9.754;2023-08-06T03:43:56;5.32;;;4.10;;
22965;SDS011;11649;48.090;9.754;2023-08-06T03:46:23;6.03;;;4.40;;
22965;SDS011;11649;48.090;9.754;2023-08-06T03:48:51;5.35;;;4.50;;
22965;SDS011;11649;48.090;9.754;2023-08-06T03:51:18;5.93;;;4.75;;
22965;SDS011;11649;48.090;9.754;2023-08-06T03:53:44;4.82;;;4.32;;
22965;SDS011;11649;48.090;9.754;2023-08-06T03:56:11;5.03;;;4.30;;
22965;SDS011;11649;48.090;9.754;2023-08-06T03:58:38;4.72;;;4.22;;
22965;SDS011;11649;48.090;9.754;2023-08-06T04:01:04;5.45;;;4.57;;
22965;SDS011;11649;48.090;9.754;2023-08-06T04:03:31;4.75;;;4.20;;
22965;SDS011;11649;48.090;9.754;2023-08-06T04:05:58;5.85;;;4.50;;
22965;SDS011;11649;48.090;9.754;2023-08-06T04:08:26;6.72;;;4.18;;
22965;SDS011;11649;48.090;9.754;2023-08-06T04:10:53;4.82;;;4.20;;
22965;SDS011;11649;48.090;9.754;2023-08-06T04:13:20;5.35;;;4.20;;
22965;SDS011;11649;48.090;9.754;2023-08-06T04:15:47;5.07;;;3.75;;
22965;SDS011;11649;48.090;9.754;2023-08-06T04:18:14;5.30;;;3.55;;
22965;SDS011;11649;48.090;9.754;2023-08-06T04:20:44;4.45;;;3.67;;
22965;SDS011;11649;48.090;9.754;2023-08-06T04:23:12;4.72;;;3.90;;
22965;SDS011;11649;48.090;9.754;2023-08-06T04:25:39;4.25;;;3.40;;
22965;SDS011;11649;48.090;9.754;2023-08-06T04:28:06;3.40;;;3.10;;
22965;SDS011;11649;48.090;9.754;2023-08-06T04:30:33;3.50;;;3.20;;
22965;SDS011;11649;48.090;9.754;2023-08-06T04:33:00;3.83;;;3.40;;
22965;SDS011;11649;48.090;9.754;2023-08-06T04:35:27;4.43;;;3.38;;
22965;SDS011;11649;48.090;9.754;2023-08-06T04:37:54;3.97;;;3.25;;
22965;SDS011;11649;48.090;9.754;2023-08-06T04:40:21;3.78;;;3.20;;
22965;SDS011;11649;48.090;9.754;2023-08-06T04:42:48;3.78;;;3.40;;
22965;SDS011;11649;48.090;9.754;2023-08-06T04:45:14;5.45;;;3.90;;
22965;SDS011;11649;48.090;9.754;2023-08-06T04:47:41;8.18;;;5.47;;
22965;SDS011;11649;48.090;9.754;2023-08-06T04:50:08;6.75;;;4.95;;
22965;SDS011;11649;48.090;9.754;2023-08-06T04:52:35;5.18;;;4.57;;
22965;SDS011;11649;48.090;9.754;2023-08-06T04:55:03;5.05;;;3.60;;
22965;SDS011;11649;48.090;9.754;2023-08-06T04:57:32;4.68;;;3.60;;
22965;SDS011;11649;48.090;9.754;2023-08-06T04:59:59;6.65;;;3.72;;
22965;SDS011;11649;48.090;9.754;2023-08-06T05:02:26;5.88;;;3.50;;
22965;SDS011;11649;48.090;9.754;2023-08-06T05:04:53;3.35;;;3.00;;
22965;SDS011;11649;48.090;9.754;2023-08-06T05:07:19;4.35;;;2.83;;
22965;SDS011;11649;48.090;9.754;2023-08-06T05:09:46;5.88;;;3.30;;
22965;SDS011;11649;48.090;9.754;2023-08-06T05:12:13;11.40;;;3.63;;
22965;SDS011;11649;48.090;9.754;2023-08-06T05:14:40;4.90;;;3.38;;
22965;SDS011;11649;48.090;9.754;2023-08-06T05:17:06;5.30;;;3.40;;
22965;SDS011;11649;48.090;9.754;2023-08-06T05:19:33;4.57;;;3.25;;
22965;SDS011;11649;48.090;9.754;2023-08-06T05:22:00;7.78;;;3.58;;
22965;SDS011;11649;48.090;9.754;2023-08-06T05:24:28;3.70;;;3.22;;
22965;SDS011;11649;48.090;9.754;2023-08-06T05:26:55;11.27;;;3.90;;
22965;SDS011;11649;48.090;9.754;2023-08-06T05:29:21;5.68;;;3.78;;
22965;SDS011;11649;48.090;9.754;2023-08-06T05:31:48;7.13;;;3.50;;
22965;SDS011;11649;48.090;9.754;2023-08-06T05:34:15;6.18;;;3.70;;
22965;SDS011;11649;48.090;9.754;2023-08-06T05:36:42;4.93;;;3.53;;
22965;SDS011;11649;48.090;9.754;2023-08-06T05:39:09;5.10;;;3.40;;
22965;SDS011;11649;48.090;9.754;2023-08-06T05:41:35;5.00;;;3.08;;
22965;SDS011;11649;48.090;9.754;2023-08-06T05:44:02;5.28;;;3.42;;
22965;SDS011;11649;48.090;9.754;2023-08-06T05:46:29;4.57;;;2.72;;
22965;SDS011;11649;48.090;9.754;2023-08-06T05:48:57;3.80;;;2.92;;
22965;SDS011;11649;48.090;9.754;2023-08-06T05:51:25;5.97;;;2.85;;
22965;SDS011;11649;48.090;9.754;2023-08-06T05:53:53;4.10;;;2.70;;
22965;SDS011;11649;48.090;9.754;2023-08-06T05:56:19;3.90;;;2.20;;
22965;SDS011;11649;48.090;9.754;2023-08-06T05:58:46;4.90;;;2.78;;
22965;SDS011;11649;48.090;9.754;2023-08-06T06:01:13;3.30;;;2.33;;
22965;SDS011;11649;48.090;9.754;2023-08-06T06:03:40;4.20;;;2.30;;
22965;SDS011;11649;48.090;9.754;2023-08-06T06:06:07;2.72;;;2.00;;
22965;SDS011;11649;48.090;9.754;2023-08-06T06:08:34;2.40;;;1.90;;
22965;SDS011;11649;48.090;9.754;2023-08-06T06:11:01;4.32;;;2.00;;
22965;SDS011;11649;48.090;9.754;2023-08-06T06:13:27;2.03;;;1.58;;
22965;SDS011;11649;48.090;9.754;2023-08-06T06:15:54;2.80;;;1.58;;
22965;SDS011;11649;48.090;9.754;2023-08-06T06:18:22;3.17;;;1.88;;
22965;SDS011;11649;48.090;9.754;2023-08-06T06:20:49;2.22;;;1.50;;
22965;SDS011;11649;48.090;9.754;2023-08-06T06:23:15;3.15;;;1.38;;
22965;SDS011;11649;48.090;9.754;2023-08-06T06:25:43;3.65;;;1.42;;
22965;SDS011;11649;48.090;9.754;2023-08-06T06:28:12;2.67;;;1.35;;
22965;SDS011;11649;48.090;9.754;2023-08-06T06:30:42;2.15;;;1.45;;
22965;SDS011;11649;48.090;9.754;2023-08-06T06:33:09;2.85;;;1.42;;
22965;SDS011;11649;48.090;9.754;2023-08-06T06:35:36;3.08;;;1.30;;
22965;SDS011;11649;48.090;9.754;2023-08-06T06:38:04;2.20;;;1.30;;
22965;SDS011;11649;48.090;9.754;2023-08-06T06:40:31;2.63;;;1.38;;
22965;SDS011;11649;48.090;9.754;2023-08-06T06:42:59;6.00;;;1.20;;
22965;SDS011;11649;48.090;9.754;2023-08-06T06:45:26;2.17;;;1.30;;
22965;SDS011;11649;48.090;9.754;2023-08-06T06:47:53;2.72;;;1.30;;
22965;SDS011;11649;48.090;9.754;2023-08-06T06:50:19;2.17;;;1.17;;
22965;SDS011;11649;48.090;9.754;2023-08-06T06:52:46;1.88;;;1.23;;
22965;SDS011;11649;48.090;9.754;2023-08-06T06:55:13;1.80;;;0.90;;
22965;SDS011;11649;48.090;9.754;2023-08-06T06:57:40;3.20;;;0.90;;
22965;SDS011;11649;48.090;9.754;2023-08-06T07:00:06;2.38;;;0.88;;
22965;SDS011;11649;48.090;9.754;2023-08-06T07:02:33;2.65;;;0.93;;
22965;SDS011;11649;48.090;9.754;2023-08-06T07:05:00;1.35;;;0.70;;
22965;SDS011;11649;48.090;9.754;2023-08-06T07:07:27;1.13;;;0.55;;
22965;SDS011;11649;48.090;9.754;2023-08-06T07:09:54;0.80;;;0.60;;
22965;SDS011;11649;48.090;9.754;2023-08-06T07:12:20;1.85;;;0.73;;
22965;SDS011;11649;48.090;9.754;2023-08-06T07:14:48;1.02;;;0.60;;
22965;SDS011;11649;48.090;9.754;2023-08-06T07:17:14;2.75;;;0.50;;
22965;SDS011;11649;48.090;9.754;2023-08-06T07:19:41;2.17;;;0.60;;
22965;SDS011;11649;48.090;9.754;2023-08-06T07:22:08;4.22;;;0.60;;
22965;SDS011;11649;48.090;9.754;2023-08-06T07:24:34;1.83;;;0.65;;
22965;SDS011;11649;48.090;9.754;2023-08-06T07:27:01;2.70;;;0.60;;
22965;SDS011;11649;48.090;9.754;2023-08-06T07:29:29;1.58;;;0.80;;
22965;SDS011;11649;48.090;9.754;2023-08-06T07:31:55;4.50;;;0.70;;
22965;SDS011;11649;48.090;9.754;2023-08-06T07:34:22;1.42;;;0.63;;
22965;SDS011;11649;48.090;9.754;2023-08-06T07:36:49;1.63;;;0.43;;
22965;SDS011;11649;48.090;9.754;2023-08-06T07:39:16;1.98;;;0.60;;
22965;SDS011;11649;48.090;9.754;2023-08-06T07:41:43;1.48;;;0.70;;
22965;SDS011;11649;48.090;9.754;2023-08-06T07:44:11;0.85;;;0.70;;
22965;SDS011;11649;48.090;9.754;2023-08-06T07:46:38;3.50;;;0.90;;
22965;SDS011;11649;48.090;9.754;2023-08-06T07:49:05;2.03;;;1.17;;
22965;SDS011;11649;48.090;9.754;2023-08-06T07:51:32;1.55;;;1.10;;
22965;SDS011;11649;48.090;9.754;2023-08-06T07:53:59;4.72;;;0.90;;
22965;SDS011;11649;48.090;9.754;2023-08-06T07:56:26;3.67;;;0.80;;
22965;SDS011;11649;48.090;9.754;2023-08-06T07:58:52;1.80;;;0.68;;
22965;SDS011;11649;48.090;9.754;2023-08-06T08:01:19;0.88;;;0.60;;
22965;SDS011;11649;48.090;9.754;2023-08-06T08:03:46;1.63;;;0.60;;
22965;SDS011;11649;48.090;9.754;2023-08-06T08:06:17;1.02;;;0.50;;
22965;SDS011;11649;48.090;9.754;2023-08-06T08:08:44;1.00;;;0.40;;
22965;SDS011;11649;48.090;9.754;2023-08-06T08:11:10;2.15;;;0.60;;
22965;SDS011;11649;48.090;9.754;2023-08-06T08:13:37;1.77;;;0.70;;
22965;SDS011;11649;48.090;9.754;2023-08-06T08:16:04;1.60;;;0.73;;
22965;SDS011;11649;48.090;9.754;2023-08-06T08:18:31;1.27;;;0.70;;
22965;SDS011;11649;48.090;9.754;2023-08-06T08:20:57;1.95;;;0.70;;
22965;SDS011;11649;48.090;9.754;2023-08-06T08:23:24;1.42;;;0.50;;
22965;SDS011;11649;48.090;9.754;2023-08-06T08:25:51;2.00;;;1.00;;
22965;SDS011;11649;48.090;9.754;2023-08-06T08:28:18;3.00;;;0.60;;
22965;SDS011;11649;48.090;9.754;2023-08-06T08:30:45;0.95;;;0.50;;
22965;SDS011;11649;48.090;9.754;2023-08-06T08:33:12;1.10;;;0.50;;
22965;SDS011;11649;48.090;9.754;2023-08-06T08:35:38;1.85;;;0.52;;
22965;SDS011;11649;48.090;9.754;2023-08-06T08:38:06;2.22;;;0.70;;
22965;SDS011;11649;48.090;9.754;2023-08-06T08:40:33;0.65;;;0.50;;
22965;SDS011;11649;48.090;9.754;2023-08-06T08:43:04;0.85;;;0.50;;
22965;SDS011;11649;48.090;9.754;2023-08-06T08:45:31;1.05;;;0.68;;
22965;SDS011;11649;48.090;9.754;2023-08-06T08:48:05;1.33;;;0.70;;
22965;SDS011;11649;48.090;9.754;2023-08-06T08:50:32;0.80;;;0.50;;
22965;SDS011;11649;48.090;9.754;2023-08-06T08:53:00;1.40;;;0.30;;
22965;SDS011;11649;48.090;9.754;2023-08-06T08:55:27;1.95;;;0.60;;
22965;SDS011;11649;48.090;9.754;2023-08-06T08:57:54;0.60;;;0.30;;
22965;SDS011;11649;48.090;9.754;2023-08-06T09:00:20;1.88;;;0.40;;
22965;SDS011;11649;48.090;9.754;2023-08-06T09:02:47;1.25;;;0.43;;
22965;SDS011;11649;48.090;9.754;2023-08-06T09:05:15;0.93;;;0.50;;
22965;SDS011;11649;48.090;9.754;2023-08-06T09:07:45;1.25;;;0.40;;
22965;SDS011;11649;48.090;9.754;2023-08-06T09:10:16;1.25;;;0.75;;
22965;SDS011;11649;48.090;9.754;2023-08-06T09:12:47;0.70;;;0.47;;
22965;SDS011;11649;48.090;9.754;2023-08-06T09:15:16;1.20;;;0.50;;
22965;SDS011;11649;48.090;9.754;2023-08-06T09:17:44;2.45;;;0.60;;
22965;SDS011;11649;48.090;9.754;2023-08-06T09:20:14;1.00;;;0.57;;
22965;SDS011;11649;48.090;9.754;2023-08-06T09:22:41;3.50;;;0.60;;
22965;SDS011;11649;48.090;9.754;2023-08-06T09:25:08;1.00;;;0.80;;
22965;SDS011;11649;48.090;9.754;2023-08-06T09:27:40;1.90;;;0.60;;
22965;SDS011;11649;48.090;9.754;2023-08-06T09:30:06;1.92;;;0.55;;
22965;SDS011;11649;48.090;9.754;2023-08-06T09:32:46;1.42;;;0.60;;
22965;SDS011;11649;48.090;9.754;2023-08-06T09:35:17;0.93;;;0.50;;
22965;SDS011;11649;48.090;9.754;2023-08-06T09:37:45;1.13;;;0.57;;
22965;SDS011;11649;48.090;9.754;2023-08-06T09:42:58;0.93;;;0.55;;
22965;SDS011;11649;48.090;9.754;2023-08-06T09:45:33;1.88;;;0.70;;
22965;SDS011;11649;48.090;9.754;2023-08-06T09:50:32;0.95;;;0.57;;
22965;SDS011;11649;48.090;9.754;2023-08-06T09:53:04;0.40;;;0.40;;
22965;SDS011;11649;48.090;9.754;2023-08-06T09:55:33;0.82;;;0.40;;
22965;SDS011;11649;48.090;9.754;2023-08-06T09:58:00;0.77;;;0.40;;
22965;SDS011;11649;48.090;9.754;2023-08-06T10:00:27;1.27;;;0.35;;
22965;SDS011;11649;48.090;9.754;2023-08-06T10:03:02;0.77;;;0.40;;
22965;SDS011;11649;48.090;9.754;2023-08-06T10:07:57;0.55;;;0.38;;
22965;SDS011;11649;48.090;9.754;2023-08-06T10:10:26;0.30;;;0.30;;
22965;SDS011;11649;48.090;9.754;2023-08-06T10:12:55;0.40;;;0.40;;
22965;SDS011;11649;48.090;9.754;2023-08-06T10:15:25;1.15;;;0.57;;
22965;SDS011;11649;48.090;9.754;2023-08-06T10:17:55;2.15;;;0.50;;
22965;SDS011;11649;48.090;9.754;2023-08-06T10:20:24;0.70;;;0.50;;
22965;SDS011;11649;48.090;9.754;2023-08-06T10:23:04;0.85;;;0.30;;
22965;SDS011;11649;48.090;9.754;2023-08-06T10:25:33;0.45;;;0.30;;
22965;SDS011;11649;48.090;9.754;2023-08-06T10:28:10;0.77;;;0.30;;
22965;SDS011;11649;48.090;9.754;2023-08-06T10:30:44;0.63;;;0.20;;
22965;SDS011;11649;48.090;9.754;2023-08-06T10:33:12;1.70;;;0.50;;
22965;SDS011;11649;48.090;9.754;2023-08-06T10:35:46;1.25;;;0.45;;
22965;SDS011;11649;48.090;9.754;2023-08-06T10:38:18;1.70;;;0.45;;
22965;SDS011;11649;48.090;9.754;2023-08-06T10:40:49;0.30;;;0.22;;
22965;SDS011;11649;48.090;9.754;2023-08-06T10:43:40;0.20;;;0.20;;
22965;SDS011;11649;48.090;9.754;2023-08-06T10:46:10;0.20;;;0.20;;
22965;SDS011;11649;48.090;9.754;2023-08-06T10:48:39;0.22;;;0.20;;
22965;SDS011;11649;48.090;9.754;2023-08-06T10:51:10;0.20;;;0.20;;
22965;SDS011;11649;48.090;9.754;2023-08-06T10:53:43;0.63;;;0.20;;
22965;SDS011;11649;48.090;9.754;2023-08-06T10:56:13;0.30;;;0.30;;
22965;SDS011;11649;48.090;9.754;2023-08-06T10:58:43;0.30;;;0.30;;
22965;SDS011;11649;48.090;9.754;2023-08-06T11:01:11;0.30;;;0.30;;
22965;SDS011;11649;48.090;9.754;2023-08-06T11:03:38;0.52;;;0.40;;
22965;SDS011;11649;48.090;9.754;2023-08-06T11:06:09;0.60;;;0.30;;
22965;SDS011;11649;48.090;9.754;2023-08-06T11:08:37;0.35;;;0.30;;
22965;SDS011;11649;48.090;9.754;2023-08-06T11:11:10;0.50;;;0.30;;
22965;SDS011;11649;48.090;9.754;2023-08-06T11:13:45;0.68;;;0.50;;
22965;SDS011;11649;48.090;9.754;2023-08-06T11:16:23;2.28;;;0.40;;
22965;SDS011;11649;48.090;9.754;2023-08-06T11:18:53;1.02;;;0.30;;
22965;SDS011;11649;48.090;9.754;2023-08-06T11:21:22;0.98;;;0.60;;
22965;SDS011;11649;48.090;9.754;2023-08-06T11:23:51;0.50;;;0.40;;
22965;SDS011;11649;48.090;9.754;2023-08-06T11:26:19;4.43;;;0.50;;
22965;SDS011;11649;48.090;9.754;2023-08-06T11:28:46;0.80;;;0.50;;
22965;SDS011;11649;48.090;9.754;2023-08-06T11:31:20;0.60;;;0.50;;
22965;SDS011;11649;48.090;9.754;2023-08-06T11:33:49;0.50;;;0.50;;
22965;SDS011;11649;48.090;9.754;2023-08-06T11:36:17;0.50;;;0.50;;
22965;SDS011;11649;48.090;9.754;2023-08-06T11:38:58;1.13;;;0.60;;
22965;SDS011;11649;48.090;9.754;2023-08-06T11:41:27;1.35;;;0.60;;
22965;SDS011;11649;48.090;9.754;2023-08-06T11:43:55;1.88;;;0.80;;
22965;SDS011;11649;48.090;9.754;2023-08-06T11:46:22;2.55;;;1.00;;
22965;SDS011;11649;48.090;9.754;2023-08-06T11:48:53;4.05;;;0.70;;
22965;SDS011;11649;48.090;9.754;2023-08-06T11:51:25;1.33;;;0.90;;
22965;SDS011;11649;48.090;9.754;2023-08-06T11:53:56;0.93;;;0.75;;
22965;SDS011;11649;48.090;9.754;2023-08-06T11:59:20;1.23;;;1.00;;
22965;SDS011;11649;48.090;9.754;2023-08-06T12:01:48;1.45;;;0.70;;
22965;SDS011;11649;48.090;9.754;2023-08-06T12:04:15;2.58;;;0.80;;
22965;SDS011;11649;48.090;9.754;2023-08-06T12:06:42;0.80;;;0.75;;
22965;SDS011;11649;48.090;9.754;2023-08-06T12:09:10;1.30;;;0.70;;
22965;SDS011;11649;48.090;9.754;2023-08-06T12:11:36;0.70;;;0.60;;
22965;SDS011;11649;48.090;9.754;2023-08-06T12:14:03;2.05;;;0.90;;
22965;SDS011;11649;48.090;9.754;2023-08-06T12:16:30;2.13;;;1.35;;
22965;SDS011;11649;48.090;9.754;2023-08-06T12:18:57;2.55;;;1.40;;
22965;SDS011;11649;48.090;9.754;2023-08-06T12:21:24;0.95;;;0.70;;
22965;SDS011;11649;48.090;9.754;2023-08-06T12:23:50;1.65;;;0.80;;
22965;SDS011;11649;48.090;9.754;2023-08-06T12:26:17;0.90;;;0.57;;
22965;SDS011;11649;48.090;9.754;2023-08-06T12:28:44;1.13;;;0.77;;
22965;SDS011;11649;48.090;9.754;2023-08-06T12:31:10;0.47;;;0.47;;
22965;SDS011;11649;48.090;9.754;2023-08-06T12:33:37;1.00;;;0.40;;
22965;SDS011;11649;48.090;9.754;2023-08-06T12:36:04;0.70;;;0.35;;
22965;SDS011;11649;48.090;9.754;2023-08-06T12:38:31;0.32;;;0.32;;
22965;SDS011;11649;48.090;9.754;2023-08-06T12:41:01;1.77;;;0.30;;
22965;SDS011;11649;48.090;9.754;2023-08-06T12:43:28;0.30;;;0.30;;
22965;SDS011;11649;48.090;9.754;2023-08-06T12:45:55;0.28;;;0.28;;
22965;SDS011;11649;48.090;9.754;2023-08-06T12:48:22;1.25;;;0.30;;
22965;SDS011;11649;48.090;9.754;2023-08-06T12:50:48;0.30;;;0.30;;
22965;SDS011;11649;48.090;9.754;2023-08-06T12:53:15;0.47;;;0.35;;
22965;SDS011;11649;48.090;9.754;2023-08-06T12:55:42;2.88;;;0.50;;
22965;SDS011;11649;48.090;9.754;2023-08-06T12:58:09;11.57;;;1.42;;
22965;SDS011;11649;48.090;9.754;2023-08-06T13:00:36;2.38;;;1.25;;
22965;SDS011;11649;48.090;9.754;2023-08-06T13:03:02;3.00;;;0.88;;
22965;SDS011;11649;48.090;9.754;2023-08-06T13:05:29;1.85;;;0.90;;
22965;SDS011;11649;48.090;9.754;2023-08-06T13:08:00;0.93;;;0.50;;
22965;SDS011;11649;48.090;9.754;2023-08-06T13:10:27;0.57;;;0.40;;
22965;SDS011;11649;48.090;9.754;2023-08-06T13:12:55;2.08;;;0.93;;
22965;SDS011;11649;48.090;9.754;2023-08-06T13:15:21;2.90;;;0.98;;
22965;SDS011;11649;48.090;9.754;2023-08-06T13:17:48;1.92;;;1.20;;
22965;SDS011;11649;48.090;9.754;2023-08-06T13:20:15;1.85;;;1.27;;
22965;SDS011;11649;48.090;9.754;2023-08-06T13:22:45;1.23;;;0.85;;
22965;SDS011;11649;48.090;9.754;2023-08-06T13:25:12;0.73;;;0.63;;
22965;SDS011;11649;48.090;9.754;2023-08-06T13:27:41;1.00;;;0.90;;
22965;SDS011;11649;48.090;9.754;2023-08-06T13:30:10;2.28;;;1.23;;
22965;SDS011;11649;48.090;9.754;2023-08-06T13:32:37;1.50;;;1.00;;
22965;SDS011;11649;48.090;9.754;2023-08-06T13:35:04;2.90;;;0.80;;
22965;SDS011;11649;48.090;9.754;2023-08-06T13:37:31;1.08;;;0.70;;
22965;SDS011;11649;48.090;9.754;2023-08-06T13:39:58;1.33;;;0.85;;
22965;SDS011;11649;48.090;9.754;2023-08-06T13:42:24;0.90;;;0.70;;
22965;SDS011;11649;48.090;9.754;2023-08-06T13:44:51;0.70;;;0.70;;
22965;SDS011;11649;48.090;9.754;2023-08-06T13:47:19;0.57;;;0.57;;
22965;SDS011;11649;48.090;9.754;2023-08-06T13:49:45;0.40;;;0.40;;
22965;SDS011;11649;48.090;9.754;2023-08-06T13:52:12;1.13;;;0.75;;
22965;SDS011;11649;48.090;9.754;2023-08-06T13:54:48;1.10;;;0.50;;
22965;SDS011;11649;48.090;9.754;2023-08-06T13:57:15;0.50;;;0.40;;
22965;SDS011;11649;48.090;9.754;2023-08-06T13:59:43;1.15;;;0.32;;
22965;SDS011;11649;48.090;9.754;2023-08-06T14:02:10;0.40;;;0.40;;
22965;SDS011;11649;48.090;9.754;2023-08-06T14:04:37;0.30;;;0.30;;
22965;SDS011;11649;48.090;9.754;2023-08-06T14:07:06;0.28;;;0.28;;
22965;SDS011;11649;48.090;9.754;2023-08-06T14:09:32;0.63;;;0.40;;
22965;SDS011;11649;48.090;9.754;2023-08-06T14:12:00;0.30;;;0.30;;
22965;SDS011;11649;48.090;9.754;2023-08-06T14:14:27;1.95;;;0.38;;
22965;SDS011;11649;48.090;9.754;2023-08-06T14:16:54;0.82;;;0.20;;
22965;SDS011;11649;48.090;9.754;2023-08-06T14:19:22;0.20;;;0.20;;
22965;SDS011;11649;48.090;9.754;2023-08-06T14:21:51;0.20;;;0.20;;
22965;SDS011;11649;48.090;9.754;2023-08-06T14:24:18;0.30;;;0.30;;
22965;SDS011;11649;48.090;9.754;2023-08-06T14:26:45;0.57;;;0.40;;
22965;SDS011;11649;48.090;9.754;2023-08-06T14:29:12;1.13;;;0.22;;
22965;SDS011;11649;48.090;9.754;2023-08-06T14:31:40;0.30;;;0.30;;
22965;SDS011;11649;48.090;9.754;2023-08-06T14:34:07;0.57;;;0.30;;
22965;SDS011;11649;48.090;9.754;2023-08-06T14:36:34;0.50;;;0.30;;
22965;SDS011;11649;48.090;9.754;2023-08-06T14:39:00;0.40;;;0.30;;
22965;SDS011;11649;48.090;9.754;2023-08-06T14:41:27;0.60;;;0.30;;
22965;SDS011;11649;48.090;9.754;2023-08-06T14:43:54;0.20;;;0.20;;
22965;SDS011;11649;48.090;9.754;2023-08-06T14:46:21;0.40;;;0.30;;
22965;SDS011;11649;48.090;9.754;2023-08-06T14:48:48;0.45;;;0.20;;
22965;SDS011;11649;48.090;9.754;2023-08-06T14:51:14;0.20;;;0.20;;
22965;SDS011;11649;48.090;9.754;2023-08-06T14:53:41;1.45;;;0.25;;
22965;SDS011;11649;48.090;9.754;2023-08-06T14:56:08;0.30;;;0.30;;
22965;SDS011;11649;48.090;9.754;2023-08-06T14:58:35;0.40;;;0.20;;
22965;SDS011;11649;48.090;9.754;2023-08-06T15:01:02;0.82;;;0.28;;
22965;SDS011;11649;48.090;9.754;2023-08-06T15:03:29;0.40;;;0.32;;